createdAt,value
2022-10-05T00:00:29.409Z,17.30
2022-10-05T00:02:59.443Z,17.30
2022-10-05T00:05:30.915Z,17.30
2022-10-05T00:08:10.635Z,17.30
2022-10-05T00:10:43.787Z,17.30
2022-10-05T00:13:16.044Z,17.30
2022-10-05T00:15:44.192Z,17.30
2022-10-05T00:18:22.258Z,17.30
2022-10-05T00:20:49.903Z,17.30
2022-10-05T00:23:30.933Z,17.30
2022-10-05T00:26:23.021Z,17.30
2022-10-05T00:28:50.731Z,17.30
2022-10-05T00:31:22.286Z,17.30
2022-10-05T00:33:49.890Z,17.30
2022-10-05T00:36:17.646Z,17.30
2022-10-05T00:38:45.161Z,17.30
2022-10-05T00:41:25.298Z,17.30
2022-10-05T00:44:04.201Z,17.30
2022-10-05T00:47:17.038Z,17.30
2022-10-05T00:50:06.770Z,17.30
2022-10-05T00:52:49.096Z,17.30
2022-10-05T00:55:26.727Z,17.20
2022-10-05T00:58:26.529Z,17.20
2022-10-05T01:01:28.960Z,17.20
2022-10-05T01:04:18.933Z,17.20
2022-10-05T01:06:48.979Z,17.20
2022-10-05T01:09:36.207Z,17.20
2022-10-05T01:12:21.757Z,17.20
2022-10-05T01:15:25.025Z,17.20
2022-10-05T01:17:52.150Z,17.20
2022-10-05T01:20:40.471Z,17.20
2022-10-05T01:23:25.474Z,17.20
2022-10-05T01:26:16.262Z,17.20
2022-10-05T01:29:20.260Z,17.10
2022-10-05T01:31:53.121Z,17.10
2022-10-05T01:34:34.901Z,17.10
2022-10-05T01:37:24.700Z,17.10
2022-10-05T01:40:08.406Z,17.10
2022-10-05T01:42:50.682Z,17.10
2022-10-05T01:45:28.046Z,17.00
2022-10-05T01:48:33.888Z,17.00
2022-10-05T01:51:25.273Z,17.00
2022-10-05T01:53:55.628Z,16.90
2022-10-05T01:56:44.698Z,16.90
2022-10-05T01:59:29.822Z,16.90
2022-10-05T02:01:57.035Z,16.80
2022-10-05T02:04:56.887Z,16.80
2022-10-05T02:07:42.332Z,16.80
2022-10-05T02:10:20.582Z,16.70
2022-10-05T02:12:53.839Z,16.70
2022-10-05T02:15:27.762Z,16.60
2022-10-05T02:18:02.064Z,16.60
2022-10-05T02:20:32.556Z,16.60
2022-10-05T02:23:05.770Z,16.60
2022-10-05T02:25:39.422Z,16.50
2022-10-05T02:28:23.843Z,16.50
2022-10-05T02:30:58.806Z,16.50
2022-10-05T02:33:31.596Z,16.40
2022-10-05T02:36:15.896Z,16.40
2022-10-05T02:39:10.544Z,16.40
2022-10-05T02:41:45.941Z,16.30
2022-10-05T02:44:24.536Z,16.30
2022-10-05T02:46:59.698Z,16.30
2022-10-05T02:49:34.851Z,16.20
2022-10-05T02:52:29.458Z,16.20
2022-10-05T02:55:09.346Z,16.20
2022-10-05T02:57:42.506Z,16.10
2022-10-05T03:00:16.789Z,16.10
2022-10-05T03:02:49.382Z,16.10
2022-10-05T03:05:25.456Z,16.10
2022-10-05T03:08:05.327Z,16.10
2022-10-05T03:10:44.423Z,16.10
2022-10-05T03:13:21.023Z,16.10
2022-10-05T03:16:18.949Z,16.10
2022-10-05T03:19:10.349Z,16.10
2022-10-05T03:22:01.566Z,16.10
2022-10-05T03:24:59.900Z,16.10
2022-10-05T03:27:47.595Z,16.10
2022-10-05T03:30:19.252Z,16.10
2022-10-05T03:33:07.489Z,16.10
2022-10-05T03:35:56.438Z,16.10
2022-10-05T03:38:49.245Z,16.10
2022-10-05T03:41:19.518Z,16.10
2022-10-05T03:44:08.141Z,16.20
2022-10-05T03:47:19.322Z,16.20
2022-10-05T03:50:06.179Z,16.20
2022-10-05T03:52:41.372Z,16.20
2022-10-05T03:55:23.440Z,16.20
2022-10-05T03:57:53.136Z,16.20
2022-10-05T04:00:26.837Z,16.20
2022-10-05T04:03:07.710Z,16.30
2022-10-05T04:05:44.487Z,16.30
2022-10-05T04:08:35.762Z,16.30
2022-10-05T04:11:10.803Z,16.30
2022-10-05T04:13:50.554Z,16.30
2022-10-05T04:16:30.941Z,16.30
2022-10-05T04:19:19.479Z,16.40
2022-10-05T04:21:57.852Z,16.40
2022-10-05T04:24:34.280Z,16.40
2022-10-05T04:27:16.501Z,16.40
2022-10-05T04:30:08.190Z,16.40
2022-10-05T04:32:57.389Z,16.40
2022-10-05T04:35:56.679Z,16.40
2022-10-05T04:38:47.860Z,16.50
2022-10-05T04:41:33.961Z,16.50
2022-10-05T04:44:06.858Z,16.50
2022-10-05T04:47:27.650Z,16.50
2022-10-05T04:49:57.487Z,16.50
2022-10-05T04:52:46.777Z,16.60
2022-10-05T04:55:45.432Z,16.50
2022-10-05T04:58:43.003Z,16.60
2022-10-05T05:01:41.275Z,16.60
2022-10-05T05:04:32.221Z,16.60
2022-10-05T05:07:27.981Z,16.60
2022-10-05T05:10:07.663Z,16.60
2022-10-05T05:13:03.087Z,16.60
2022-10-05T05:16:09.170Z,16.60
2022-10-05T05:18:51.752Z,16.60
2022-10-05T05:21:49.850Z,16.60
2022-10-05T05:24:35.468Z,16.60
2022-10-05T05:27:02.748Z,16.60
2022-10-05T05:29:48.187Z,16.70
2022-10-05T05:32:27.619Z,16.70
2022-10-05T05:35:27.899Z,16.70
2022-10-05T05:38:15.266Z,16.70
2022-10-05T05:41:17.409Z,16.70
2022-10-05T05:44:17.529Z,16.70
2022-10-05T05:47:08.754Z,16.70
2022-10-05T05:49:51.035Z,16.70
2022-10-05T05:52:20.233Z,16.70
2022-10-05T05:55:02.093Z,16.70
2022-10-05T05:57:37.976Z,16.80
2022-10-05T06:00:20.642Z,16.80
2022-10-05T06:02:54.894Z,16.80
2022-10-05T06:05:22.151Z,16.80
2022-10-05T06:07:52.695Z,16.80
2022-10-05T06:10:41.481Z,16.80
2022-10-05T06:13:38.478Z,16.90
2022-10-05T06:16:23.552Z,16.90
2022-10-05T06:19:05.706Z,16.90
2022-10-05T06:21:51.402Z,16.90
2022-10-05T06:24:23.231Z,17.00
2022-10-05T06:27:16.567Z,16.90
2022-10-05T06:30:10.065Z,17.00
2022-10-05T06:32:49.365Z,17.00
2022-10-05T06:35:16.460Z,17.00
2022-10-05T06:37:58.973Z,17.00
2022-10-05T06:40:32.065Z,17.00
2022-10-05T06:43:10.556Z,17.10
2022-10-05T06:45:55.645Z,17.10
2022-10-05T06:49:04.720Z,17.10
2022-10-05T06:51:38.074Z,17.20
2022-10-05T06:54:05.291Z,17.20
2022-10-05T06:56:48.331Z,17.20
2022-10-05T06:59:30.922Z,17.20
2022-10-05T07:02:30.933Z,17.20
2022-10-05T07:05:38.816Z,17.30
2022-10-05T07:08:13.541Z,17.30
2022-10-05T07:11:07.310Z,17.40
2022-10-05T07:13:40.391Z,17.40
2022-10-05T07:16:19.782Z,17.50
2022-10-05T07:19:18.937Z,17.50
2022-10-05T07:21:55.136Z,17.50
2022-10-05T07:24:45.515Z,17.60
2022-10-05T07:27:25.353Z,17.60
2022-10-05T07:30:08.324Z,17.70
2022-10-05T07:32:59.704Z,17.70
2022-10-05T07:35:54.203Z,17.70
2022-10-05T07:38:32.118Z,17.70
2022-10-05T07:41:07.453Z,17.70
2022-10-05T07:44:00.932Z,17.80
2022-10-05T07:46:56.759Z,17.80
2022-10-05T07:49:36.589Z,17.90
2022-10-05T07:52:12.690Z,17.90
2022-10-05T07:55:03.627Z,17.90
2022-10-05T07:57:45.125Z,18.00
2022-10-05T08:00:23.234Z,18.00
2022-10-05T08:03:05.636Z,18.00
2022-10-05T08:05:36.127Z,18.10
2022-10-05T08:08:33.473Z,18.10
2022-10-05T08:11:19.037Z,18.20
2022-10-05T08:14:02.290Z,18.20
2022-10-05T08:16:35.708Z,18.20
2022-10-05T08:19:08.339Z,18.30
2022-10-05T08:21:42.432Z,18.30
2022-10-05T08:24:37.275Z,18.40
2022-10-05T08:27:10.364Z,18.40
2022-10-05T08:29:52.642Z,18.50
2022-10-05T08:32:24.087Z,18.50
2022-10-05T08:35:02.528Z,18.60
2022-10-05T08:37:35.886Z,18.60
2022-10-05T08:40:24.529Z,18.70
2022-10-05T08:43:21.988Z,18.80
2022-10-05T08:46:13.482Z,18.80
2022-10-05T08:48:57.238Z,18.80
2022-10-05T08:51:29.562Z,18.90
2022-10-05T08:54:02.306Z,19.00
2022-10-05T08:56:35.277Z,19.00
2022-10-05T08:59:24.320Z,19.10
2022-10-05T09:02:40.361Z,19.10
2022-10-05T09:05:28.549Z,19.20
2022-10-05T09:07:58.778Z,19.20
2022-10-05T09:10:50.674Z,19.20
2022-10-05T09:13:43.615Z,19.30
2022-10-05T09:16:17.016Z,19.30
2022-10-05T09:19:15.139Z,19.30
2022-10-05T09:21:43.673Z,19.30
2022-10-05T09:24:25.610Z,19.40
2022-10-05T09:27:07.914Z,19.40
2022-10-05T09:29:52.954Z,19.40
2022-10-05T09:32:57.818Z,19.50
2022-10-05T09:35:43.564Z,19.50
2022-10-05T09:38:17.961Z,19.60
2022-10-05T09:41:23.262Z,19.70
2022-10-05T09:44:06.678Z,19.70
2022-10-05T09:46:55.275Z,19.70
2022-10-05T09:49:43.409Z,19.80
2022-10-05T09:52:57.506Z,19.90
2022-10-05T09:55:33.665Z,19.90
2022-10-05T09:58:12.747Z,20.00
2022-10-05T10:01:15.833Z,20.00
2022-10-05T10:04:25.801Z,20.10
2022-10-05T10:07:11.054Z,20.20
2022-10-05T10:09:50.111Z,20.20
2022-10-05T10:12:35.980Z,20.30
2022-10-05T10:15:05.951Z,20.30
2022-10-05T10:17:48.512Z,20.40
2022-10-05T10:20:38.830Z,20.50
2022-10-05T10:23:23.386Z,20.40
2022-10-05T10:26:42.473Z,20.50
2022-10-05T10:29:51.731Z,20.50
2022-10-05T10:32:36.359Z,20.50
2022-10-05T10:35:25.765Z,20.40
2022-10-05T10:37:52.896Z,20.40
2022-10-05T10:40:58.244Z,20.50
2022-10-05T10:43:35.175Z,20.60
2022-10-05T10:46:45.374Z,20.60
2022-10-05T10:49:33.876Z,20.60
2022-10-05T10:52:31.367Z,20.60
2022-10-05T10:55:35.693Z,20.70
2022-10-05T10:58:13.654Z,20.70
2022-10-05T11:00:57.844Z,20.80
2022-10-05T11:03:37.198Z,20.70
2022-10-05T11:06:28.472Z,20.70
2022-10-05T11:09:09.346Z,20.70
2022-10-05T11:12:07.388Z,20.80
2022-10-05T11:14:57.259Z,20.80
2022-10-05T11:17:42.876Z,20.80
2022-10-05T11:20:18.811Z,20.80
2022-10-05T11:23:10.131Z,20.80
2022-10-05T11:25:44.421Z,20.80
2022-10-05T11:28:58.545Z,20.90
2022-10-05T11:31:31.222Z,20.90
2022-10-05T11:34:23.704Z,20.90
2022-10-05T11:36:59.711Z,20.90
2022-10-05T11:39:37.103Z,21.00
2022-10-05T11:42:14.829Z,21.00
2022-10-05T11:45:29.565Z,21.00
2022-10-05T11:48:20.291Z,21.00
2022-10-05T11:51:22.090Z,21.00
2022-10-05T11:54:19.650Z,21.00
2022-10-05T11:57:05.344Z,21.00
2022-10-05T12:00:02.600Z,20.90
2022-10-05T12:02:56.990Z,21.00
2022-10-05T12:05:30.306Z,21.10
2022-10-05T12:08:03.764Z,21.20
2022-10-05T12:11:01.530Z,21.30
2022-10-05T12:13:31.461Z,21.30
2022-10-05T12:16:20.470Z,21.30
2022-10-05T12:19:17.726Z,21.40
2022-10-05T12:22:03.806Z,21.40
2022-10-05T12:24:36.984Z,21.50
2022-10-05T12:27:17.153Z,21.50
2022-10-05T12:29:52.253Z,21.50
2022-10-05T12:32:30.792Z,21.50
2022-10-05T12:35:36.215Z,21.60
2022-10-05T12:38:20.185Z,21.60
2022-10-05T12:40:55.225Z,21.70
2022-10-05T12:43:35.375Z,21.70
2022-10-05T12:46:15.440Z,21.80
2022-10-05T12:49:19.886Z,21.80
2022-10-05T12:51:57.177Z,21.80
2022-10-05T12:54:39.817Z,21.80
2022-10-05T12:57:12.824Z,21.80
2022-10-05T12:59:43.068Z,21.80
2022-10-05T13:02:23.711Z,21.80
2022-10-05T13:05:07.223Z,21.80
2022-10-05T13:07:59.660Z,21.80
2022-10-05T13:10:44.926Z,21.80
2022-10-05T13:13:21.481Z,21.90
2022-10-05T13:15:51.548Z,21.90
2022-10-05T13:18:40.089Z,21.90
2022-10-05T13:21:23.457Z,21.90
2022-10-05T13:24:27.083Z,21.90
2022-10-05T13:27:08.583Z,21.90
2022-10-05T13:29:49.897Z,21.80
2022-10-05T13:32:54.722Z,21.80
2022-10-05T13:35:42.337Z,21.70
2022-10-05T13:38:34.174Z,21.70
2022-10-05T13:41:45.788Z,21.60
2022-10-05T13:44:24.812Z,21.70
2022-10-05T13:46:59.646Z,21.60
2022-10-05T13:49:31.928Z,21.60
2022-10-05T13:52:25.187Z,21.50
2022-10-05T13:55:38.239Z,21.60
2022-10-05T13:58:39.372Z,21.40
2022-10-05T14:01:14.657Z,21.40
2022-10-05T14:04:03.217Z,21.30
2022-10-05T14:06:32.550Z,21.20
2022-10-05T14:09:00.046Z,21.10
2022-10-05T14:11:31.330Z,21.10
2022-10-05T14:14:13.831Z,21.00
2022-10-05T14:16:51.224Z,21.00
2022-10-05T14:19:33.545Z,20.80
2022-10-05T14:22:03.534Z,20.70
2022-10-05T14:24:46.263Z,20.70
2022-10-05T14:27:27.144Z,20.60
2022-10-05T14:30:18.638Z,20.60
2022-10-05T14:32:57.142Z,20.60
2022-10-05T14:35:28.725Z,20.60
2022-10-05T14:38:00.411Z,20.60
2022-10-05T14:40:33.669Z,20.50
2022-10-05T14:43:15.517Z,20.50
2022-10-05T14:46:02.630Z,20.50
2022-10-05T14:48:42.860Z,20.40
2022-10-05T14:51:30.537Z,20.40
2022-10-05T14:54:00.507Z,20.40
2022-10-05T14:56:37.091Z,20.30
2022-10-05T14:59:06.982Z,20.30
2022-10-05T15:01:36.794Z,20.30
2022-10-05T15:04:20.524Z,20.20
2022-10-05T15:07:04.320Z,20.20
2022-10-05T15:09:37.273Z,20.20
2022-10-05T15:12:08.249Z,20.20
2022-10-05T15:14:40.066Z,20.20
2022-10-05T15:17:34.424Z,20.20
2022-10-05T15:20:31.010Z,20.20
2022-10-05T15:23:06.201Z,20.30
2022-10-05T15:25:38.137Z,20.30
2022-10-05T15:28:27.367Z,20.30
2022-10-05T15:31:16.344Z,20.30
2022-10-05T15:33:59.388Z,20.30
2022-10-05T15:36:59.299Z,20.30
2022-10-05T15:39:37.184Z,20.30
2022-10-05T15:42:11.302Z,20.30
2022-10-05T15:44:55.484Z,20.30
2022-10-05T15:47:28.728Z,20.30
2022-10-05T15:50:02.507Z,20.30
2022-10-05T15:52:37.820Z,20.30
2022-10-05T15:55:29.222Z,20.30
2022-10-05T15:58:31.290Z,20.30
2022-10-05T16:01:10.689Z,20.30
2022-10-05T16:04:01.112Z,20.30
2022-10-05T16:07:08.147Z,20.30
2022-10-05T16:10:15.241Z,20.30
2022-10-05T16:13:36.801Z,20.30
2022-10-05T16:16:27.348Z,20.30
2022-10-05T16:19:07.465Z,20.30
2022-10-05T16:21:54.082Z,20.40
2022-10-05T16:24:47.356Z,20.40
2022-10-05T16:27:30.832Z,20.40
2022-10-05T16:30:08.797Z,20.40
2022-10-05T16:32:49.988Z,20.40
2022-10-05T16:35:49.500Z,20.40
2022-10-05T16:38:40.614Z,20.40
2022-10-05T16:41:34.973Z,20.40
2022-10-05T16:44:35.361Z,20.40
2022-10-05T16:47:27.972Z,20.40
2022-10-05T16:50:20.565Z,20.40
2022-10-05T16:52:58.019Z,20.40
2022-10-05T16:55:44.026Z,20.40
2022-10-05T16:58:27.438Z,20.40
2022-10-05T17:01:28.579Z,20.40
2022-10-05T17:04:14.671Z,20.40
2022-10-05T17:06:47.069Z,20.40
2022-10-05T17:09:34.384Z,20.40
2022-10-05T17:12:15.398Z,20.30
2022-10-05T17:15:17.336Z,20.40
2022-10-05T17:18:00.383Z,20.40
2022-10-05T17:20:42.696Z,20.30
2022-10-05T17:23:29.243Z,20.30
2022-10-05T17:26:09.386Z,20.30
2022-10-05T17:28:51.122Z,20.30
2022-10-05T17:31:22.316Z,20.30
2022-10-05T17:34:11.204Z,20.30
2022-10-05T17:36:47.583Z,20.30
2022-10-05T17:39:44.025Z,20.30
2022-10-05T17:42:26.768Z,20.30
2022-10-05T17:45:12.295Z,20.30
2022-10-05T17:47:58.446Z,20.30
2022-10-05T17:51:04.121Z,20.30
2022-10-05T17:54:02.114Z,20.30
2022-10-05T17:56:55.858Z,20.20
2022-10-05T17:59:55.611Z,20.20
2022-10-05T18:02:36.942Z,20.20
2022-10-05T18:05:07.202Z,20.20
2022-10-05T18:07:38.979Z,20.30
2022-10-05T18:10:12.018Z,20.30
2022-10-05T18:13:01.831Z,20.30
2022-10-05T18:15:29.065Z,20.30
2022-10-05T18:18:32.181Z,20.30
2022-10-05T18:21:15.934Z,20.30
2022-10-05T18:24:01.718Z,20.30
2022-10-05T18:26:48.105Z,20.30
2022-10-05T18:30:00.969Z,20.30
2022-10-05T18:33:32.122Z,20.30
2022-10-05T18:36:34.209Z,20.40
2022-10-05T18:39:39.606Z,20.40
2022-10-05T18:43:05.079Z,20.40
2022-10-05T18:46:15.016Z,20.40
2022-10-05T18:49:04.655Z,20.40
2022-10-05T18:52:00.825Z,20.40
2022-10-05T18:54:54.906Z,20.40
2022-10-05T18:57:37.216Z,20.50
2022-10-05T19:00:16.057Z,20.50
2022-10-05T19:03:11.032Z,20.40
2022-10-05T19:05:52.590Z,20.50
2022-10-05T19:08:29.426Z,20.50
2022-10-05T19:11:25.268Z,20.50
2022-10-05T19:14:14.491Z,20.50
2022-10-05T19:17:26.195Z,20.50
2022-10-05T19:20:29.025Z,20.50
2022-10-05T19:23:08.429Z,20.50
2022-10-05T19:25:54.893Z,20.40
2022-10-05T19:28:37.473Z,20.40
2022-10-05T19:31:28.591Z,20.40
2022-10-05T19:34:44.954Z,20.40
2022-10-05T19:37:44.786Z,20.40
2022-10-05T19:40:29.310Z,20.40
2022-10-05T19:43:15.375Z,20.40
2022-10-05T19:45:54.468Z,20.50
2022-10-05T19:48:40.487Z,20.50
2022-10-05T19:51:35.075Z,20.50
2022-10-05T19:54:25.200Z,20.40
2022-10-05T19:56:54.350Z,20.30
2022-10-05T19:59:28.215Z,20.30
2022-10-05T20:01:59.371Z,20.20
2022-10-05T20:04:44.272Z,20.20
2022-10-05T20:07:23.187Z,20.10
2022-10-05T20:10:00.080Z,20.00
2022-10-05T20:12:50.967Z,20.00
2022-10-05T20:15:40.032Z,20.00
2022-10-05T20:18:55.130Z,20.00
2022-10-05T20:21:40.807Z,19.90
2022-10-05T20:24:08.225Z,19.90
2022-10-05T20:27:02.109Z,19.80
2022-10-05T20:29:35.477Z,19.80
2022-10-05T20:32:13.583Z,19.80
2022-10-05T20:34:46.399Z,19.80
2022-10-05T20:37:16.406Z,19.80
2022-10-05T20:39:47.389Z,19.70
2022-10-05T20:42:14.883Z,19.70
2022-10-05T20:44:42.420Z,19.70
2022-10-05T20:47:10.350Z,19.70
2022-10-05T20:49:41.008Z,19.60
2022-10-05T20:52:10.485Z,19.60
2022-10-05T20:54:40.119Z,19.60
2022-10-05T20:57:09.297Z,19.70
2022-10-05T20:59:37.272Z,19.60
2022-10-05T21:02:05.305Z,19.70
2022-10-05T21:04:40.796Z,19.70
2022-10-05T21:07:09.481Z,19.70
2022-10-05T21:09:38.534Z,19.70
2022-10-05T21:12:05.896Z,19.70
2022-10-05T21:14:34.412Z,19.70
2022-10-05T21:17:04.540Z,19.60
2022-10-05T21:19:35.389Z,19.50
2022-10-05T21:22:02.666Z,19.50
2022-10-05T21:24:29.775Z,19.40
2022-10-05T21:26:57.606Z,19.30
2022-10-05T21:29:25.006Z,19.20
2022-10-05T21:31:52.456Z,19.10
2022-10-05T21:34:19.756Z,19.10
2022-10-05T21:36:49.426Z,19.00
2022-10-05T21:39:19.344Z,18.90
2022-10-05T21:41:48.710Z,18.90
2022-10-05T21:44:17.042Z,18.80
2022-10-05T21:46:44.328Z,18.80
2022-10-05T21:49:14.124Z,18.70
2022-10-05T21:51:44.792Z,18.70
2022-10-05T21:54:15.438Z,18.70
2022-10-05T21:56:46.325Z,18.60
2022-10-05T21:59:16.774Z,18.60
2022-10-05T22:01:48.814Z,18.60
2022-10-05T22:04:18.289Z,18.50
2022-10-05T22:06:49.033Z,18.50
2022-10-05T22:09:18.443Z,18.50
2022-10-05T22:11:51.997Z,18.50
2022-10-05T22:14:21.519Z,18.50
2022-10-05T22:16:48.852Z,18.40
2022-10-05T22:19:19.249Z,18.50
2022-10-05T22:21:48.753Z,18.40
2022-10-05T22:24:16.035Z,18.50
2022-10-05T22:26:45.904Z,18.40
2022-10-05T22:29:18.595Z,18.40
2022-10-05T22:31:49.323Z,18.40
2022-10-05T22:34:18.369Z,18.40
2022-10-05T22:36:45.953Z,18.30
2022-10-05T22:39:13.689Z,18.30
2022-10-05T22:41:40.925Z,18.30
2022-10-05T22:44:10.719Z,18.20
2022-10-05T22:46:40.138Z,18.20
2022-10-05T22:49:07.359Z,18.20
2022-10-05T22:51:34.607Z,18.10
2022-10-05T22:54:02.121Z,18.00
2022-10-05T22:56:29.478Z,18.00
2022-10-05T22:58:56.784Z,18.00
2022-10-05T23:01:24.171Z,17.90
2022-10-05T23:03:51.427Z,17.90
2022-10-05T23:06:22.677Z,17.80
2022-10-05T23:08:50.413Z,17.80
2022-10-05T23:11:26.021Z,17.70
2022-10-05T23:13:58.611Z,17.70
2022-10-05T23:16:30.109Z,17.60
2022-10-05T23:18:57.722Z,17.60
2022-10-05T23:21:29.973Z,17.60
2022-10-05T23:23:57.144Z,17.50
2022-10-05T23:26:25.757Z,17.50
2022-10-05T23:28:56.714Z,17.40
2022-10-05T23:31:30.987Z,17.40
2022-10-05T23:33:58.183Z,17.40
2022-10-05T23:36:28.300Z,17.30
2022-10-05T23:39:00.064Z,17.30
2022-10-05T23:41:29.496Z,17.30
2022-10-05T23:43:56.797Z,17.20
2022-10-05T23:46:24.637Z,17.20
2022-10-05T23:48:56.851Z,17.20
2022-10-05T23:51:24.095Z,17.10
2022-10-05T23:53:51.378Z,17.10
2022-10-05T23:56:18.595Z,17.00
2022-10-05T23:58:45.905Z,17.00
